Mehmet Bey — 9HUD6 — position and weather

sailwx.info

Track history (hours):
 
Tides and Currents Weather Stations Pressure Air Temp Water Temp Dewpoint Dewpoint Depression Visibility Wind Speed Wind Dir Waves Ship Positions

Mehmet Bey

Last reported at 2015-May-14 23:18 UTC. Time now 2015-May-22 19:05 UTC.
Position N 39°51' E 025°52'.

Length 131 m; draft 5 m.

Type: Cargo ship. MMSI: 248864000.

Date/timePositionNaut miles runAvg speedWind from/ knotsBaromVisibWave heightAir tempDewpointWater temp
2015-May-14 23:18N 39°51' E 025°52'188 8.5
2015-May-14 01:21N 36°56' E 027°19'31 6.6
2015-May-13 20:33N 36°32' E 027°44'9 8.5
2015-May-13 19:31N 36°29' E 027°55'357 7.9
2015-May-11 22:09N 31°28' E 031°46'0 0.0
2015-May-10 20:27N 31°28' E 031°46'0 0.0
2015-May-10 19:33N 31°28' E 031°46'0 0.0
2015-May-10 16:27N 31°28' E 031°46'0 0.0
2015-May-10 15:33N 31°28' E 031°46'0 0.0
2015-May-10 14:33N 31°28' E 031°46'0 0.0
2015-May-10 11:33N 31°28' E 031°46'0 0.0
2015-May-08 22:24N 31°28' E 031°46'0 0.0
2015-May-08 21:33N 31°28' E 031°46'0 0.0
2015-May-08 18:21N 31°28' E 031°46'0 0.0
2015-May-08 17:30N 31°28' E 031°46'0 0.0
2015-May-08 16:30N 31°28' E 031°46'0 0.0
2015-May-08 13:33N 31°28' E 031°46'0 0.0
2015-May-08 12:30N 31°28' E 031°46'0 0.0
2015-May-08 11:12N 31°28' E 031°46'0 0.0
2015-May-08 10:21N 31°28' E 031°46'0 0.0
2015-May-08 09:27N 31°28' E 031°46'0 0.0
2015-May-08 08:03N 31°28' E 031°46'0 0.0
2015-May-08 07:33N 31°28' E 031°46'0 0.0
2015-May-08 06:33N 31°28' E 031°46'0 0.0
2015-May-08 05:30N 31°28' E 031°46'0 0.0
2015-May-08 04:33N 31°28' E 031°46'0 0.0
2015-May-07 16:30N 31°28' E 031°46'0 0.0
2015-May-07 15:33N 31°28' E 031°46'0 0.0
2015-May-07 13:24N 31°28' E 031°46'10 0.5
2015-May-06 18:24N 31°38' E 031°47'2 1.4
2015-May-06 17:09N 31°36' E 031°46'0 0.0
2015-May-06 16:33N 31°36' E 031°46'0 0.0
2015-May-06 14:09N 31°36' E 031°46'0 0.0
2015-May-06 09:15N 31°36' E 031°46'0 0.0
2015-May-06 03:33N 31°36' E 031°46'0 0.0
2015-May-05 23:30N 31°36' E 031°46'0 0.0
2015-May-05 20:27N 31°36' E 031°46'  
Track history (hours):
 
Tides and Currents Weather Stations Pressure Air Temp Water Temp Dewpoint Dewpoint Depression Visibility Wind Speed Wind Dir Waves Ship Positions

Mehmet Bey

Last reported at 2015-May-14 23:18 UTC. Time now 2015-May-22 19:05 UTC.
Position N 39°51' E 025°52'.

Length 131 m; draft 5 m.

Type: Cargo ship. MMSI: 248864000.

Date/timePositionNaut miles runAvg speedWind from/ knotsBaromVisibWave heightAir tempDewpointWater temp
2015-May-14 23:18N 39°51' E 025°52'188 8.5
2015-May-14 01:21N 36°56' E 027°19'31 6.6
2015-May-13 20:33N 36°32' E 027°44'9 8.5
2015-May-13 19:31N 36°29' E 027°55'357 7.9
2015-May-11 22:09N 31°28' E 031°46'0 0.0
2015-May-10 20:27N 31°28' E 031°46'0 0.0
2015-May-10 19:33N 31°28' E 031°46'0 0.0
2015-May-10 16:27N 31°28' E 031°46'0 0.0
2015-May-10 15:33N 31°28' E 031°46'0 0.0
2015-May-10 14:33N 31°28' E 031°46'0 0.0
2015-May-10 11:33N 31°28' E 031°46'0 0.0
2015-May-08 22:24N 31°28' E 031°46'0 0.0
2015-May-08 21:33N 31°28' E 031°46'0 0.0
2015-May-08 18:21N 31°28' E 031°46'0 0.0
2015-May-08 17:30N 31°28' E 031°46'0 0.0
2015-May-08 16:30N 31°28' E 031°46'0 0.0
2015-May-08 13:33N 31°28' E 031°46'0 0.0
2015-May-08 12:30N 31°28' E 031°46'0 0.0
2015-May-08 11:12N 31°28' E 031°46'0 0.0
2015-May-08 10:21N 31°28' E 031°46'0 0.0
2015-May-08 09:27N 31°28' E 031°46'0 0.0
2015-May-08 08:03N 31°28' E 031°46'0 0.0
2015-May-08 07:33N 31°28' E 031°46'0 0.0
2015-May-08 06:33N 31°28' E 031°46'0 0.0
2015-May-08 05:30N 31°28' E 031°46'0 0.0
2015-May-08 04:33N 31°28' E 031°46'0 0.0
2015-May-07 16:30N 31°28' E 031°46'0 0.0
2015-May-07 15:33N 31°28' E 031°46'0 0.0
2015-May-07 13:24N 31°28' E 031°46'10 0.5
2015-May-06 18:24N 31°38' E 031°47'2 1.4
2015-May-06 17:09N 31°36' E 031°46'0 0.0
2015-May-06 16:33N 31°36' E 031°46'0 0.0
2015-May-06 14:09N 31°36' E 031°46'0 0.0
2015-May-06 09:15N 31°36' E 031°46'0 0.0
2015-May-06 03:33N 31°36' E 031°46'0 0.0
2015-May-05 23:30N 31°36' E 031°46'0 0.0
2015-May-05 20:27N 31°36' E 031°46'  

Dump ship's entire track history